Time;durP1;ratioP1;P1;durP2;ratioP2;P2;SDS_P1;SDS_P2;PMS_P1;PMS_P2;Temp;Humidity;BMP_temperature;BMP_pressure;BME280_temperature;BME280_humidity;BME280_pressure;Samples;Min_cycle;Max_cycle;Signal;HPM_P1;HPM_P2
2021/09/01 00:02:09;;;;;;;22.03;13.67;;;;;;;15.21;73.87;97490.88;5051950;28;20220;-68
2021/09/01 00:04:35;;;;;;;17.93;14.17;;;;;;;15.17;74.38;97500.97;5052163;28;20709;-68
2021/09/01 00:07:01;;;;;;;22.00;14.10;;;;;;;15.16;74.62;97501.97;5052806;28;20772;-66
2021/09/01 00:09:26;;;;;;;20.70;15.07;;;;;;;15.15;74.69;97502.97;5052338;28;20174;-65
2021/09/01 00:11:53;;;;;;;24.90;14.40;;;;;;;15.14;74.48;97497.88;5052644;28;20609;-67
2021/09/01 00:14:19;;;;;;;21.40;14.73;;;;;;;15.19;74.11;97499.00;5051885;28;20199;-67
2021/09/01 00:16:44;;;;;;;18.67;14.80;;;;;;;15.32;73.67;97498.41;5049554;28;20432;-67
2021/09/01 00:19:10;;;;;;;21.07;14.50;;;;;;;15.43;72.96;97499.81;5044286;28;20191;-67
2021/09/01 00:21:37;;;;;;;22.97;14.77;;;;;;;15.40;72.99;97494.88;5052913;28;20183;-67
2021/09/01 00:24:03;;;;;;;18.57;14.50;;;;;;;15.41;72.73;97495.72;5051581;28;20434;-66
2021/09/01 00:26:29;;;;;;;20.17;15.00;;;;;;;15.14;74.00;97498.69;5052379;28;20556;-67
2021/09/01 00:28:55;;;;;;;19.17;15.70;;;;;;;15.16;73.76;97504.59;5052215;28;20425;-67
2021/09/01 00:31:21;;;;;;;22.50;14.43;;;;;;;15.15;73.48;97502.97;5052088;28;20426;-66
2021/09/01 00:33:47;;;;;;;18.80;13.77;;;;;;;15.17;73.16;97490.41;5051525;28;20464;-66
2021/09/01 00:36:13;;;;;;;18.67;13.47;;;;;;;15.08;73.24;97496.75;5052272;28;20216;-67
2021/09/01 00:38:38;;;;;;;16.67;12.90;;;;;;;15.03;73.44;97496.44;5051974;28;20991;-65
2021/09/01 00:41:04;;;;;;;20.10;13.93;;;;;;;15.10;72.98;97499.19;5051918;28;20241;-68
2021/09/01 00:43:30;;;;;;;19.90;13.13;;;;;;;15.12;73.10;97495.38;5034951;28;20194;-66
2021/09/01 00:45:55;;;;;;;20.07;14.30;;;;;;;15.03;73.20;97493.78;5048919;28;20202;-66
2021/09/01 00:48:22;;;;;;;24.80;15.17;;;;;;;14.90;73.91;97492.53;5051763;28;20183;-66
2021/09/01 00:50:55;;;;;;;21.73;15.80;;;;;;;15.03;73.38;97488.53;5051041;28;20596;-66
2021/09/01 00:53:28;;;;;;;26.03;16.80;;;;;;;15.11;73.00;97491.13;5050727;28;20542;-66
2021/09/01 00:55:57;;;;;;;18.20;14.63;;;;;;;15.16;72.65;97493.25;5051754;28;20417;-66
2021/09/01 00:58:22;;;;;;;18.30;14.33;;;;;;;15.20;72.63;97492.72;5046198;28;20513;-66
2021/09/01 01:03:34;;;;;;;17.60;13.70;;;;;;;15.22;72.08;97487.25;5049302;28;20206;-65
2021/09/01 01:05:59;;;;;;;21.80;14.63;;;;;;;15.17;72.35;97487.78;5051370;28;20461;-67
2021/09/01 01:08:34;;;;;;;17.63;13.57;;;;;;;15.17;72.06;97497.53;5051378;28;20221;-66
2021/09/01 01:11:00;;;;;;;21.50;15.00;;;;;;;15.08;72.15;97494.09;5051474;28;20179;-66
2021/09/01 01:13:27;;;;;;;19.23;14.20;;;;;;;14.95;72.75;97493.84;5033574;28;20861;-67
2021/09/01 01:15:53;;;;;;;19.60;15.40;;;;;;;14.89;72.95;97506.72;5047484;28;20433;-66
2021/09/01 01:18:18;;;;;;;21.70;15.67;;;;;;;14.90;72.82;97500.47;5049127;28;20425;-67
2021/09/01 01:20:48;;;;;;;19.53;14.93;;;;;;;14.95;72.62;97499.13;5042464;28;20431;-66
2021/09/01 01:23:18;;;;;;;19.07;14.37;;;;;;;14.92;72.65;97491.56;5048015;28;20671;-66
2021/09/01 01:25:44;;;;;;;21.90;15.40;;;;;;;15.00;72.26;97494.13;5050744;28;20483;-67
2021/09/01 01:28:10;;;;;;;20.53;14.03;;;;;;;15.02;71.84;97492.16;5051152;28;20436;-66
2021/09/01 01:30:37;;;;;;;22.47;15.20;;;;;;;15.02;71.96;97489.50;5035491;28;20464;-66
2021/09/01 01:33:04;;;;;;;19.27;14.83;;;;;;;15.01;71.88;97493.97;5042954;28;20972;-66
2021/09/01 01:35:31;;;;;;;19.43;15.00;;;;;;;15.01;72.35;97496.63;5050367;28;20429;-67
2021/09/01 01:37:58;;;;;;;20.50;14.70;;;;;;;15.02;72.30;97489.50;5049498;28;20437;-68
2021/09/01 01:40:24;;;;;;;28.00;14.87;;;;;;;15.07;72.37;97496.91;5050663;28;20452;-66
2021/09/01 01:42:51;;;;;;;25.87;15.00;;;;;;;15.12;72.10;97497.22;5051074;28;20441;-67
2021/09/01 01:45:17;;;;;;;16.53;13.73;;;;;;;15.10;72.14;97493.94;5030801;28;21052;-67
2021/09/01 01:47:43;;;;;;;20.30;15.17;;;;;;;15.09;71.82;97493.13;5040455;28;20432;-67
2021/09/01 01:50:09;;;;;;;23.17;15.00;;;;;;;15.04;71.92;97487.53;5045153;28;20552;-66
2021/09/01 01:52:34;;;;;;;18.03;14.27;;;;;;;14.98;71.85;97494.31;5049318;28;20179;-66
2021/09/01 01:55:00;;;;;;;17.40;13.90;;;;;;;14.99;72.01;97498.59;5049916;28;20417;-66
2021/09/01 01:57:25;;;;;;;20.57;14.57;;;;;;;14.93;72.09;97493.19;5049432;28;20555;-67
2021/09/01 01:59:51;;;;;;;17.30;13.93;;;;;;;14.86;71.87;97493.91;5045011;28;20183;-67
2021/09/01 02:02:17;;;;;;;21.37;13.27;;;;;;;14.70;72.29;97492.13;5048928;28;20183;-67
2021/09/01 02:04:42;;;;;;;19.73;14.03;;;;;;;14.72;72.19;97489.34;5049918;28;20293;-67
2021/09/01 02:07:08;;;;;;;17.53;14.43;;;;;;;14.56;72.35;97493.66;5050272;28;20189;-66
2021/09/01 02:09:33;;;;;;;18.57;13.50;;;;;;;14.47;72.95;97492.06;5050662;28;20180;-67
2021/09/01 02:11:59;;;;;;;19.00;13.47;;;;;;;14.40;73.21;97491.91;5050830;28;20182;-66
2021/09/01 02:14:24;;;;;;;26.90;14.30;;;;;;;14.42;73.03;97497.00;5048239;28;20215;-67
2021/09/01 02:16:50;;;;;;;22.53;14.23;;;;;;;14.38;73.39;97495.69;5053280;28;20179;-67
2021/09/01 02:19:15;;;;;;;21.93;15.30;;;;;;;14.42;73.26;97502.28;5042388;28;20180;-66
2021/09/01 02:21:41;;;;;;;22.50;15.10;;;;;;;14.32;73.92;97491.09;5049235;28;20343;-66
2021/09/01 02:24:07;;;;;;;19.90;15.00;;;;;;;14.36;73.57;97503.78;5035243;28;20210;-67
2021/09/01 02:26:32;;;;;;;21.37;15.50;;;;;;;14.24;74.55;97500.66;5054257;28;20737;-65
2021/09/01 02:28:58;;;;;;;20.40;14.10;;;;;;;14.36;74.15;97502.97;5054364;28;20183;-65
2021/09/01 02:31:24;;;;;;;19.60;15.40;;;;;;;14.34;74.48;97500.47;5054216;28;20190;-66
2021/09/01 02:33:49;;;;;;;20.67;15.40;;;;;;;14.55;73.50;97502.56;5053531;28;20463;-66
2021/09/01 02:36:15;;;;;;;19.03;15.20;;;;;;;14.65;73.05;97501.53;5053965;28;20183;-66
2021/09/01 02:38:44;;;;;;;21.50;15.63;;;;;;;14.65;72.99;97490.97;5054170;28;20195;-68
2021/09/01 02:41:13;;;;;;;22.67;16.17;;;;;;;14.50;73.71;97496.97;5053993;28;20183;-67
2021/09/01 02:43:38;;;;;;;22.97;15.30;;;;;;;14.61;73.18;97494.97;5053463;28;20437;-66
2021/09/01 02:46:04;;;;;;;22.80;16.07;;;;;;;14.51;73.56;97498.59;5051033;28;20461;-67
2021/09/01 02:48:30;;;;;;;21.63;15.27;;;;;;;14.28;74.56;97503.81;5054105;28;20193;-67
2021/09/01 02:50:56;;;;;;;24.40;16.40;;;;;;;14.09;75.56;97505.81;5054026;28;20275;-66
2021/09/01 02:53:22;;;;;;;20.20;15.77;;;;;;;13.93;75.92;97504.03;5053281;28;20226;-66
2021/09/01 02:55:48;;;;;;;26.67;15.97;;;;;;;14.21;74.83;97501.03;5044127;28;20562;-66
2021/09/01 02:58:17;;;;;;;22.70;15.60;;;;;;;14.28;74.39;97499.34;5053704;28;20422;-66
2021/09/01 03:00:43;;;;;;;20.80;16.00;;;;;;;14.28;74.33;97496.72;5054181;28;20564;-67
2021/09/01 03:03:08;;;;;;;23.77;15.90;;;;;;;14.23;74.78;97511.38;5038088;28;20478;-67
2021/09/01 03:05:34;;;;;;;29.03;16.10;;;;;;;14.11;75.05;97500.38;5013960;28;20207;-67
2021/09/01 03:07:59;;;;;;;22.40;15.77;;;;;;;14.20;74.79;97495.91;5037051;28;20193;-68
2021/09/01 03:10:25;;;;;;;24.40;15.50;;;;;;;13.96;75.25;97498.44;5038837;28;20654;-68
2021/09/01 03:12:51;;;;;;;23.50;16.40;;;;;;;14.07;74.88;97494.59;5056624;28;20230;-67
2021/09/01 03:15:16;;;;;;;24.20;18.07;;;;;;;13.95;75.88;97496.78;5055199;28;20179;-67
2021/09/01 03:17:42;;;;;;;25.00;16.60;;;;;;;13.92;75.49;97502.38;5053865;28;20618;-66
2021/09/01 03:20:08;;;;;;;23.07;16.43;;;;;;;14.02;75.23;97502.22;5045804;28;20179;-67
2021/09/01 03:22:34;;;;;;;22.60;15.60;;;;;;;14.10;74.38;97501.38;5054179;28;20193;-67
2021/09/01 03:24:59;;;;;;;19.60;14.83;;;;;;;14.19;73.94;97492.44;5053821;28;20540;-66
2021/09/01 03:27:25;;;;;;;30.57;14.33;;;;;;;14.09;73.83;97497.09;5052613;28;20245;-67
2021/09/01 03:29:50;;;;;;;27.90;15.20;;;;;;;14.03;74.16;97493.31;5053688;28;20685;-67
2021/09/01 03:32:16;;;;;;;19.90;15.30;;;;;;;14.06;74.03;97497.41;5053747;28;20187;-67
2021/09/01 03:34:42;;;;;;;23.20;15.80;;;;;;;13.86;74.38;97502.22;5037063;28;20203;-66
2021/09/01 03:37:07;;;;;;;23.60;16.23;;;;;;;13.96;74.18;97501.06;5054261;28;20189;-66
2021/09/01 03:39:33;;;;;;;22.80;15.17;;;;;;;13.84;74.54;97502.38;5055139;28;20183;-67
2021/09/01 03:41:58;;;;;;;20.77;15.30;;;;;;;13.96;74.03;97502.84;5053584;28;20183;-67
2021/09/01 03:44:24;;;;;;;26.20;15.93;;;;;;;13.78;74.50;97505.66;5052192;28;20573;-66
2021/09/01 03:46:50;;;;;;;21.20;15.00;;;;;;;13.72;74.85;97503.72;5053593;28;20526;-66
2021/09/01 03:49:18;;;;;;;23.93;16.90;;;;;;;13.64;74.95;97496.63;5052889;28;20182;-67
2021/09/01 03:51:47;;;;;;;25.30;15.30;;;;;;;13.81;74.29;97506.16;5053179;28;20183;-68
2021/09/01 03:54:13;;;;;;;22.17;15.60;;;;;;;13.77;74.45;97510.13;5052133;28;20441;-66
2021/09/01 03:56:39;;;;;;;21.70;15.77;;;;;;;13.86;74.38;97512.75;5053319;28;20414;-66
2021/09/01 03:59:05;;;;;;;27.00;16.47;;;;;;;13.79;74.50;97517.84;5052645;28;20501;-67
2021/09/01 04:01:32;;;;;;;20.67;14.97;;;;;;;13.77;74.31;97511.94;5053792;28;20187;-67
2021/09/01 04:04:00;;;;;;;18.53;14.17;;;;;;;13.78;74.78;97513.56;5039127;28;20443;-67
2021/09/01 04:06:25;;;;;;;24.37;15.00;;;;;;;13.72;74.64;97511.63;5049975;28;20877;-66
2021/09/01 04:08:51;;;;;;;23.63;16.10;;;;;;;13.65;75.50;97509.63;5053132;28;20426;-67
2021/09/01 04:11:16;;;;;;;20.00;14.53;;;;;;;13.80;75.03;97512.41;5052688;28;20270;-66
2021/09/01 04:13:42;;;;;;;23.10;15.67;;;;;;;13.82;74.64;97520.16;5050973;28;20290;-66
2021/09/01 04:16:07;;;;;;;23.23;16.30;;;;;;;13.74;74.79;97521.00;5053278;28;20207;-67
2021/09/01 04:18:33;;;;;;;22.63;16.30;;;;;;;13.72;74.97;97522.16;5047705;28;20184;-67
2021/09/01 04:20:58;;;;;;;38.53;19.03;;;;;;;13.57;75.53;97520.16;5048800;28;20556;-66
2021/09/01 04:23:24;;;;;;;37.57;19.83;;;;;;;13.65;75.62;97530.69;5051628;28;20308;-67
2021/09/01 04:25:49;;;;;;;32.43;17.83;;;;;;;13.77;74.57;97518.03;5052384;28;20231;-67
2021/09/01 04:28:15;;;;;;;25.50;16.90;;;;;;;13.75;74.79;97517.38;5051849;28;20586;-67
2021/09/01 04:30:40;;;;;;;32.47;17.30;;;;;;;13.77;75.13;97522.47;5052379;28;20674;-66
2021/09/01 04:33:06;;;;;;;27.40;17.13;;;;;;;13.74;74.64;97528.88;5051922;28;20545;-67
2021/09/01 04:35:32;;;;;;;26.73;17.03;;;;;;;13.55;75.55;97522.13;5036776;28;20317;-67
2021/09/01 04:37:57;;;;;;;30.00;16.90;;;;;;;13.74;75.00;97518.34;5051913;28;20203;-66
2021/09/01 04:40:23;;;;;;;25.30;16.80;;;;;;;13.87;74.25;97528.38;5051498;28;20266;-65
2021/09/01 04:42:48;;;;;;;23.27;15.73;;;;;;;13.90;74.16;97522.78;5051794;28;20249;-67
2021/09/01 04:45:14;;;;;;;21.13;15.27;;;;;;;13.89;73.96;97529.03;5051040;28;20681;-69
2021/09/01 04:47:39;;;;;;;21.20;14.70;;;;;;;13.89;73.76;97529.03;5052215;28;20179;-66
2021/09/01 04:50:05;;;;;;;25.43;16.53;;;;;;;13.91;73.84;97527.06;5052123;28;20270;-67
2021/09/01 04:52:31;;;;;;;25.13;16.23;;;;;;;13.94;74.12;97520.63;5053761;28;20335;-67
2021/09/01 04:54:58;;;;;;;27.30;16.50;;;;;;;14.02;73.73;97531.19;5052416;28;20175;-66
2021/09/01 04:57:23;;;;;;;26.03;17.70;;;;;;;13.97;73.55;97531.69;5051865;28;20316;-66
2021/09/01 04:59:49;;;;;;;23.40;16.17;;;;;;;13.98;73.44;97528.06;5047670;28;20434;-68
2021/09/01 05:02:14;;;;;;;26.17;17.03;;;;;;;13.87;73.68;97536.28;5051673;28;20273;-67
2021/09/01 05:04:40;;;;;;;22.97;16.00;;;;;;;13.95;73.77;97528.41;5037580;28;20207;-66
2021/09/01 05:07:05;;;;;;;21.97;15.33;;;;;;;14.00;73.49;97530.53;5051342;28;20179;-66
2021/09/01 05:09:31;;;;;;;18.90;13.87;;;;;;;14.05;73.19;97530.03;5045803;28;20585;-67
2021/09/01 05:11:56;;;;;;;18.97;14.27;;;;;;;14.08;73.04;97521.78;5050853;28;20615;-66
2021/09/01 05:14:22;;;;;;;20.20;14.50;;;;;;;14.05;73.10;97527.38;5040546;28;20207;-65
2021/09/01 05:16:47;;;;;;;19.90;13.83;;;;;;;14.11;73.06;97526.75;5051520;28;20206;-67
2021/09/01 05:19:13;;;;;;;24.93;16.10;;;;;;;14.09;72.86;97534.78;5027616;28;20234;-66
2021/09/01 05:21:51;;;;;;;26.30;14.93;;;;;;;13.98;72.76;97535.13;5051128;28;20187;-67
2021/09/01 05:24:30;;;;;;;24.33;14.53;;;;;;;14.00;72.90;97543.72;5049561;28;20202;-67
2021/09/01 05:27:00;;;;;;;23.67;16.00;;;;;;;14.03;72.62;97547.81;5044577;28;20429;-67
2021/09/01 05:29:28;;;;;;;25.30;15.37;;;;;;;14.05;72.61;97548.47;5047474;28;20544;-66
2021/09/01 05:31:55;;;;;;;23.50;15.27;;;;;;;14.15;72.77;97533.31;5051114;28;20432;-67
2021/09/01 05:34:21;;;;;;;19.97;15.43;;;;;;;14.17;72.58;97541.88;5032592;28;20447;-68
2021/09/01 05:36:47;;;;;;;26.07;15.37;;;;;;;14.28;72.61;97544.16;5049354;28;20424;-67
2021/09/01 05:39:14;;;;;;;29.00;15.10;;;;;;;14.38;72.40;97545.78;5050384;28;20434;-67
2021/09/01 05:41:41;;;;;;;25.53;16.30;;;;;;;14.62;72.33;97541.47;5045051;28;20206;-65
2021/09/01 05:44:07;;;;;;;36.17;19.07;;;;;;;14.80;72.06;97546.53;5032901;28;20453;-65
2021/09/01 05:46:33;;;;;;;31.50;17.27;;;;;;;14.95;71.72;97544.00;5050966;28;20514;-66
2021/09/01 05:48:58;;;;;;;26.10;17.53;;;;;;;15.11;71.34;97546.56;5027701;28;20429;-67
2021/09/01 05:51:24;;;;;;;24.07;15.33;;;;;;;15.23;71.53;97548.81;5050777;28;20658;-69
2021/09/01 05:53:50;;;;;;;20.53;16.33;;;;;;;15.38;71.09;97547.03;5048995;28;20300;-70
2021/09/01 05:56:18;;;;;;;21.40;15.40;;;;;;;15.53;70.93;97536.56;5049583;28;20683;-68
2021/09/01 05:58:45;;;;;;;20.60;14.90;;;;;;;15.66;70.71;97546.53;5049433;28;20175;-69
2021/09/01 06:01:13;;;;;;;22.20;15.70;;;;;;;15.78;70.37;97550.41;5049506;28;20428;-68
2021/09/01 06:03:41;;;;;;;19.80;15.13;;;;;;;15.91;70.43;97554.31;5049175;28;20446;-69
2021/09/01 06:06:09;;;;;;;25.93;16.30;;;;;;;16.07;70.33;97548.88;5050836;28;21036;-69
2021/09/01 06:08:35;;;;;;;22.20;16.37;;;;;;;16.21;70.19;97560.47;5051118;28;20789;-69
2021/09/01 06:11:03;;;;;;;23.80;18.07;;;;;;;16.33;69.41;97563.53;5051641;28;20479;-68
2021/09/01 06:13:28;;;;;;;27.70;18.87;;;;;;;16.54;70.01;97556.69;5035284;28;20856;-70
2021/09/01 06:15:56;;;;;;;32.33;18.50;;;;;;;17.01;69.40;97558.16;5044537;28;20500;-69
2021/09/01 06:18:22;;;;;;;32.07;17.77;;;;;;;17.66;68.18;97552.97;5052732;28;20421;-70
2021/09/01 06:20:48;;;;;;;29.23;17.10;;;;;;;18.35;65.65;97557.84;5064696;28;20424;-71
2021/09/01 06:23:14;;;;;;;26.27;15.90;;;;;;;18.91;62.92;97554.28;5060022;28;20541;-69
2021/09/01 06:25:39;;;;;;;22.17;16.23;;;;;;;19.09;61.12;97556.44;5068118;28;20453;-70
2021/09/01 06:28:06;;;;;;;19.70;14.20;;;;;;;19.07;60.89;97560.31;5068417;28;20179;-70
2021/09/01 06:30:31;;;;;;;22.33;15.07;;;;;;;18.71;61.17;97562.94;5064281;28;20198;-66
2021/09/01 06:32:57;;;;;;;22.50;15.80;;;;;;;18.43;61.71;97563.00;5051044;28;20532;-67
2021/09/01 06:35:23;;;;;;;24.70;17.13;;;;;;;18.48;62.06;97557.09;5050133;28;20180;-67
2021/09/01 06:37:49;;;;;;;19.30;15.00;;;;;;;18.51;61.90;97565.50;5045062;28;20207;-66
2021/09/01 06:40:17;;;;;;;20.87;15.60;;;;;;;18.64;62.11;97569.25;5047258;28;20183;-67
2021/09/01 06:42:43;;;;;;;28.47;17.17;;;;;;;18.71;61.38;97580.72;5043033;28;20849;-68
2021/09/01 06:45:10;;;;;;;23.53;16.33;;;;;;;18.83;61.26;97568.53;5044330;28;20462;-68
2021/09/01 06:47:40;;;;;;;21.80;15.70;;;;;;;19.08;61.00;97576.03;5045040;28;20190;-66
2021/09/01 06:50:06;;;;;;;20.17;14.77;;;;;;;19.27;60.79;97568.38;5047065;28;20829;-67
2021/09/01 06:52:32;;;;;;;25.10;16.03;;;;;;;19.39;60.10;97564.09;5050321;28;20414;-67
2021/09/01 06:54:57;;;;;;;25.70;15.50;;;;;;;19.49;60.00;97569.03;5049883;28;20483;-68
2021/09/01 06:57:23;;;;;;;21.67;15.50;;;;;;;19.30;59.87;97570.59;5050503;28;20183;-68
2021/09/01 06:59:48;;;;;;;25.13;17.77;;;;;;;18.73;62.07;97576.06;5050385;28;20266;-66
2021/09/01 07:02:14;;;;;;;24.10;17.40;;;;;;;18.85;62.19;97568.34;5044107;28;20262;-67
2021/09/01 07:04:40;;;;;;;22.47;16.30;;;;;;;18.43;63.30;97573.59;5049548;28;20207;-67
2021/09/01 07:07:05;;;;;;;23.70;16.60;;;;;;;18.64;63.55;97577.22;5048246;28;20287;-67
2021/09/01 07:09:31;;;;;;;23.80;17.20;;;;;;;18.73;63.09;97578.69;5050179;28;20658;-67
2021/09/01 07:11:56;;;;;;;25.47;16.40;;;;;;;18.85;62.76;97582.44;5053204;28;20589;-67
2021/09/01 07:14:22;;;;;;;19.90;15.57;;;;;;;19.21;62.00;97590.41;5039151;28;20199;-69
2021/09/01 07:16:47;;;;;;;21.00;16.40;;;;;;;19.12;61.63;97592.41;5053628;28;20262;-68
2021/09/01 07:19:13;;;;;;;20.47;16.23;;;;;;;19.37;61.23;97582.09;5045231;28;20180;-67
2021/09/01 07:21:38;;;;;;;24.70;16.33;;;;;;;19.28;61.38;97584.09;5053913;28;20650;-68
2021/09/01 07:24:04;;;;;;;22.97;16.50;;;;;;;19.33;61.03;97583.50;5052726;28;20279;-67
2021/09/01 07:26:29;;;;;;;21.43;14.30;;;;;;;19.32;60.94;97589.81;5036265;28;20203;-67
2021/09/01 07:28:55;;;;;;;23.70;15.33;;;;;;;19.31;60.91;97589.03;5045813;28;20179;-68
2021/09/01 07:31:21;;;;;;;19.53;15.93;;;;;;;19.53;60.50;97585.41;5053488;28;20187;-68
2021/09/01 07:33:47;;;;;;;20.63;16.13;;;;;;;19.72;60.67;97592.59;5051172;28;20218;-67
2021/09/01 07:36:12;;;;;;;20.87;16.13;;;;;;;20.07;59.28;97584.47;5053334;28;20258;-66
2021/09/01 07:38:38;;;;;;;25.53;17.23;;;;;;;19.89;59.93;97593.06;5053132;28;20222;-68
2021/09/01 07:41:03;;;;;;;24.00;15.73;;;;;;;20.12;59.29;97594.50;5053329;28;20198;-68
2021/09/01 07:43:29;;;;;;;18.90;14.73;;;;;;;20.42;58.18;97592.25;5038406;28;20199;-67
2021/09/01 07:45:55;;;;;;;22.70;16.17;;;;;;;20.44;58.08;97604.53;5053093;28;20202;-67
2021/09/01 07:48:21;;;;;;;23.10;15.83;;;;;;;20.26;58.05;97598.00;5052697;28;20418;-67
2021/09/01 07:50:47;;;;;;;21.73;15.20;;;;;;;20.16;58.51;97609.06;5053485;28;20730;-68
2021/09/01 07:53:13;;;;;;;26.43;15.07;;;;;;;20.03;58.69;97614.34;5052317;28;20203;-67
2021/09/01 07:55:38;;;;;;;22.37;14.00;;;;;;;20.30;58.21;97609.06;5035543;28;20995;-68
2021/09/01 07:58:04;;;;;;;18.23;13.30;;;;;;;19.69;59.27;97616.91;5054189;28;20304;-70
2021/09/01 08:00:30;;;;;;;18.93;13.33;;;;;;;20.11;58.16;97616.81;5053382;28;20225;-66
2021/09/01 08:02:55;;;;;;;21.27;13.40;;;;;;;20.28;57.87;97622.56;5052717;28;20253;-67
2021/09/01 08:05:21;;;;;;;19.43;13.00;;;;;;;20.45;57.02;97619.47;5052128;28;20218;-67
2021/09/01 08:07:47;;;;;;;17.10;12.80;;;;;;;20.50;57.22;97625.03;5052752;28;20664;-68
2021/09/01 08:10:13;;;;;;;18.27;14.47;;;;;;;20.49;56.78;97629.50;5052849;28;20179;-67
2021/09/01 08:12:39;;;;;;;21.43;14.90;;;;;;;20.65;56.84;97627.44;5046061;28;20176;-67
2021/09/01 08:15:07;;;;;;;24.80;13.77;;;;;;;20.81;56.02;97623.56;5045430;28;20171;-68
2021/09/01 08:17:33;;;;;;;16.80;13.30;;;;;;;20.69;57.05;97621.50;5052742;28;20418;-67
2021/09/01 08:19:58;;;;;;;17.23;14.03;;;;;;;21.19;55.71;97622.84;5044489;28;20932;-66
2021/09/01 08:22:24;;;;;;;18.03;14.00;;;;;;;20.61;57.05;97627.06;5052309;28;20187;-68
2021/09/01 08:24:49;;;;;;;19.90;13.83;;;;;;;20.91;56.25;97626.63;5047028;28;20198;-67
2021/09/01 08:27:15;;;;;;;20.43;14.03;;;;;;;20.72;57.30;97629.09;5052520;28;20330;-68
2021/09/01 08:29:41;;;;;;;16.80;14.20;;;;;;;21.22;55.68;97635.75;5052500;28;20228;-68
2021/09/01 08:32:07;;;;;;;21.03;14.43;;;;;;;21.50;54.94;97631.97;5052164;28;20175;-68
2021/09/01 08:34:33;;;;;;;16.60;12.73;;;;;;;21.56;54.90;97635.63;5050105;28;20502;-68
2021/09/01 08:37:00;;;;;;;16.60;14.10;;;;;;;21.72;54.42;97637.00;5044357;28;20414;-68
2021/09/01 08:39:26;;;;;;;17.13;14.03;;;;;;;21.17;55.96;97636.38;5051654;28;20187;-68
2021/09/01 08:41:52;;;;;;;16.10;12.50;;;;;;;21.55;54.58;97637.47;5052177;28;20424;-68
2021/09/01 08:44:18;;;;;;;18.87;13.37;;;;;;;21.55;55.15;97640.13;5037207;28;20191;-68
2021/09/01 08:46:44;;;;;;;21.40;13.90;;;;;;;21.59;54.61;97651.22;5052322;28;20457;-68
2021/09/01 08:49:12;;;;;;;17.03;14.00;;;;;;;21.66;54.83;97648.53;5034896;28;20183;-67
2021/09/01 08:51:38;;;;;;;16.43;11.73;;;;;;;21.94;53.91;97656.19;5025504;28;20424;-66
2021/09/01 08:54:04;;;;;;;17.20;12.93;;;;;;;21.94;54.40;97634.84;5044294;28;20456;-67
2021/09/01 08:56:30;;;;;;;20.43;13.23;;;;;;;21.59;54.13;97644.03;5036184;28;20198;-68
2021/09/01 08:58:56;;;;;;;18.53;12.70;;;;;;;22.24;52.97;97640.38;5052324;28;20425;-68
2021/09/01 09:01:50;;;;;;;15.87;12.40;;;;;;;22.25;52.38;97646.50;5050751;28;20444;-69
2021/09/01 09:04:27;;;;;;;19.17;12.13;;;;;;;22.59;51.85;97641.75;5048951;28;20425;-67
2021/09/01 09:06:57;;;;;;;16.50;11.87;;;;;;;22.72;51.54;97634.66;5045164;28;20799;-67
2021/09/01 09:09:34;;;;;;;13.77;11.53;;;;;;;22.74;51.29;97633.41;5049398;28;20447;-67
2021/09/01 09:12:01;;;;;;;14.60;12.70;;;;;;;22.84;50.58;97623.03;5050410;28;20470;-67
2021/09/01 09:14:26;;;;;;;14.37;12.07;;;;;;;22.32;52.24;97627.78;5036323;28;20571;-68
2021/09/01 09:17:20;;;;;;;15.30;11.53;;;;;;;22.32;51.89;97625.94;5051693;28;20525;-68
2021/09/01 09:19:52;;;;;;;13.00;10.60;;;;;;;22.29;50.79;97615.69;5041961;28;20538;-68
2021/09/01 09:22:27;;;;;;;9.57;8.57;;;;;;;22.33;49.76;97624.06;5051265;28;20591;-69
2021/09/01 09:25:28;;;;;;;14.67;9.63;;;;;;;22.53;50.39;97624.78;5042271;28;20933;-68
2021/09/01 09:27:59;;;;;;;12.67;9.40;;;;;;;22.55;50.18;97627.22;5051494;28;20425;-68
2021/09/01 09:30:32;;;;;;;10.03;9.03;;;;;;;22.54;49.89;97634.41;5050620;28;20774;-67
2021/09/01 09:33:08;;;;;;;16.60;10.43;;;;;;;22.29;50.96;97629.03;5050676;28;20432;-67
2021/09/01 09:36:00;;;;;;;11.23;9.60;;;;;;;22.12;50.98;97630.59;5031595;28;20441;-68
2021/09/01 09:38:33;;;;;;;8.90;8.00;;;;;;;22.14;50.39;97624.03;5048454;28;20430;-68
2021/09/01 09:41:01;;;;;;;9.50;7.50;;;;;;;22.38;49.90;97624.25;5049839;28;20437;-67
2021/09/01 09:43:27;;;;;;;9.90;7.90;;;;;;;22.82;49.05;97622.41;5018362;28;20456;-68
2021/09/01 09:46:06;;;;;;;8.30;7.50;;;;;;;22.44;48.99;97622.59;5051147;28;20472;-68
2021/09/01 09:48:34;;;;;;;7.50;6.80;;;;;;;22.43;47.93;97615.59;5042832;28;20472;-68
2021/09/01 09:51:02;;;;;;;6.50;5.30;;;;;;;21.70;49.75;97629.22;5050689;28;20425;-69
2021/09/01 09:53:51;;;;;;;7.53;6.83;;;;;;;21.93;50.36;97622.53;5050158;28;20444;-69
2021/09/01 09:56:17;;;;;;;9.47;6.13;;;;;;;22.09;49.59;97623.84;5047578;28;20901;-69
2021/09/01 09:58:54;;;;;;;8.13;6.73;;;;;;;22.16;48.72;97624.63;5050689;28;20428;-68
2021/09/01 10:01:21;;;;;;;6.47;5.60;;;;;;;22.50;48.17;97619.03;5050579;28;20961;-67
2021/09/01 10:03:48;;;;;;;6.20;5.60;;;;;;;22.50;47.69;97622.53;5048600;28;21094;-69
2021/09/01 10:06:17;;;;;;;8.13;5.60;;;;;;;22.61;47.27;97612.16;5050746;28;20453;-68
2021/09/01 10:08:44;;;;;;;6.90;5.80;;;;;;;22.63;46.53;97615.44;5050930;28;20437;-67
2021/09/01 10:11:11;;;;;;;4.83;4.40;;;;;;;22.19;45.22;97616.16;5051144;28;20422;-67
2021/09/01 10:13:43;;;;;;;6.43;5.63;;;;;;;21.95;46.59;97617.78;5031961;28;20450;-68
2021/09/01 10:16:20;;;;;;;6.20;5.20;;;;;;;21.53;45.13;97609.38;5047884;28;20984;-68
2021/09/01 10:19:15;;;;;;;9.40;7.33;;;;;;;22.38;44.83;97603.69;5043756;28;20995;-68
2021/09/01 10:21:44;;;;;;;8.87;5.17;;;;;;;22.06;44.44;97606.41;5036277;28;21038;-68
2021/09/01 10:24:23;;;;;;;6.40;5.00;;;;;;;22.35;45.37;97603.31;5049068;28;20430;-68
2021/09/01 10:27:07;;;;;;;6.63;5.00;;;;;;;23.40;43.87;97604.34;5046009;28;20991;-68
2021/09/01 10:29:43;;;;;;;5.47;4.70;;;;;;;23.44;42.24;97600.16;5046936;28;20414;-68
2021/09/01 10:32:36;;;;;;;7.90;5.83;;;;;;;22.79;43.67;97595.34;5050879;28;20413;-68
2021/09/01 10:35:15;;;;;;;6.13;5.53;;;;;;;23.37;42.20;97601.28;5050220;28;20487;-68
2021/09/01 10:37:45;;;;;;;5.93;5.20;;;;;;;22.01;43.83;97598.22;5037994;28;20488;-67
2021/09/01 10:40:23;;;;;;;5.80;5.20;;;;;;;23.15;42.08;97604.38;5050671;28;20891;-67
2021/09/01 10:42:50;;;;;;;5.10;4.60;;;;;;;23.47;40.19;97599.69;5041543;28;20427;-66
2021/09/01 10:45:20;;;;;;;6.37;5.10;;;;;;;23.28;41.55;97606.94;5046368;28;20488;-68
2021/09/01 10:47:55;;;;;;;6.80;5.57;;;;;;;23.78;42.41;97600.53;5038709;28;20430;-67
2021/09/01 10:50:23;;;;;;;7.43;5.37;;;;;;;23.98;42.37;97604.78;5042940;28;20516;-68
2021/09/01 10:52:58;;;;;;;6.80;5.70;;;;;;;24.03;41.24;97602.25;5055113;28;20571;-68
2021/09/01 10:55:23;;;;;;;5.50;5.00;;;;;;;24.31;40.78;97599.94;5054622;28;20416;-68
2021/09/01 10:58:13;;;;;;;9.70;5.40;;;;;;;24.75;40.00;97591.59;5048114;28;20496;-67
2021/09/01 11:00:39;;;;;;;6.27;4.60;;;;;;;24.34;39.92;97602.97;5049061;28;20266;-68
2021/09/01 11:03:05;;;;;;;4.63;4.13;;;;;;;23.70;40.90;97600.81;5054376;28;20590;-68
2021/09/01 11:05:31;;;;;;;6.00;5.37;;;;;;;24.22;40.34;97599.47;5053625;28;20199;-67
2021/09/01 11:07:56;;;;;;;7.80;5.03;;;;;;;24.55;39.10;97595.44;5053879;28;20266;-66
2021/09/01 11:10:22;;;;;;;5.00;4.50;;;;;;;24.75;38.33;97591.59;5051760;28;20183;-68
2021/09/01 11:12:59;;;;;;;5.50;4.87;;;;;;;23.20;41.16;97604.56;5039529;28;20176;-68
2021/09/01 11:15:25;;;;;;;7.00;4.57;;;;;;;22.69;41.76;97603.84;5050372;28;20678;-68
2021/09/01 11:17:51;;;;;;;7.40;5.03;;;;;;;23.23;41.74;97592.59;5054368;28;20421;-68
2021/09/01 11:20:16;;;;;;;6.70;5.30;;;;;;;21.76;45.30;97598.22;5045253;28;20833;-67
2021/09/01 11:22:42;;;;;;;7.90;4.90;;;;;;;22.59;43.32;97598.19;5050287;28;20642;-69
2021/09/01 11:25:10;;;;;;;6.03;5.47;;;;;;;22.02;44.30;97599.06;5052049;28;20199;-67